sensor_id;sensor_type;location;lat;lon;timestamp;pressure;altitude;pressure_sealevel;temperature;humidity
15489;BME280;7846;48.830;9.116;2023-01-19T00:00:11;96791.00;;;3.37;60.87
15489;BME280;7846;48.830;9.116;2023-01-19T00:02:37;96791.94;;;3.36;60.50
15489;BME280;7846;48.830;9.116;2023-01-19T00:05:03;96791.78;;;3.67;59.63
15489;BME280;7846;48.830;9.116;2023-01-19T00:07:30;96790.72;;;3.50;59.78
15489;BME280;7846;48.830;9.116;2023-01-19T00:09:55;96797.56;;;3.61;59.61
15489;BME280;7846;48.830;9.116;2023-01-19T00:12:21;96788.50;;;3.65;58.99
15489;BME280;7846;48.830;9.116;2023-01-19T00:14:48;96789.63;;;3.53;59.19
15489;BME280;7846;48.830;9.116;2023-01-19T00:17:13;96797.31;;;3.35;60.05
15489;BME280;7846;48.830;9.116;2023-01-19T00:19:42;96795.38;;;3.47;59.92
15489;BME280;7846;48.830;9.116;2023-01-19T00:22:08;96797.56;;;3.32;60.05
15489;BME280;7846;48.830;9.116;2023-01-19T00:24:33;96801.41;;;3.08;60.54
15489;BME280;7846;48.830;9.116;2023-01-19T00:26:59;96799.47;;;3.10;60.52
15489;BME280;7846;48.830;9.116;2023-01-19T00:29:26;96804.69;;;3.10;60.29
15489;BME280;7846;48.830;9.116;2023-01-19T00:31:55;96804.13;;;3.07;61.56
15489;BME280;7846;48.830;9.116;2023-01-19T00:34:21;96806.88;;;3.25;60.46
15489;BME280;7846;48.830;9.116;2023-01-19T00:36:48;96802.91;;;3.40;60.15
15489;BME280;7846;48.830;9.116;2023-01-19T00:39:14;96801.00;;;3.23;59.72
15489;BME280;7846;48.830;9.116;2023-01-19T00:41:39;96805.78;;;3.08;60.76
15489;BME280;7846;48.830;9.116;2023-01-19T00:44:23;96804.41;;;3.13;60.65
15489;BME280;7846;48.830;9.116;2023-01-19T00:46:49;96805.09;;;3.35;59.94
15489;BME280;7846;48.830;9.116;2023-01-19T00:49:15;96805.78;;;3.27;60.10
15489;BME280;7846;48.830;9.116;2023-01-19T00:51:40;96806.06;;;3.34;59.77
15489;BME280;7846;48.830;9.116;2023-01-19T00:54:05;96806.31;;;3.40;58.80
15489;BME280;7846;48.830;9.116;2023-01-19T00:56:36;96797.56;;;3.22;60.24
15489;BME280;7846;48.830;9.116;2023-01-19T00:59:01;96807.56;;;3.36;59.66
15489;BME280;7846;48.830;9.116;2023-01-19T01:01:26;96809.22;;;3.28;60.62
15489;BME280;7846;48.830;9.116;2023-01-19T01:03:52;96811.50;;;3.40;59.43
15489;BME280;7846;48.830;9.116;2023-01-19T01:06:20;96807.66;;;2.96;60.90
15489;BME280;7846;48.830;9.116;2023-01-19T01:08:45;96802.50;;;3.15;60.67
15489;BME280;7846;48.830;9.116;2023-01-19T01:11:10;96819.63;;;2.49;61.68
15489;BME280;7846;48.830;9.116;2023-01-19T01:13:37;96812.97;;;2.85;60.98
15489;BME280;7846;48.830;9.116;2023-01-19T01:16:02;96809.94;;;2.60;61.68
15489;BME280;7846;48.830;9.116;2023-01-19T01:18:28;96813.16;;;3.03;60.97
15489;BME280;7846;48.830;9.116;2023-01-19T01:21:05;96818.22;;;3.14;60.36
15489;BME280;7846;48.830;9.116;2023-01-19T01:23:31;96815.88;;;2.82;60.67
15489;BME280;7846;48.830;9.116;2023-01-19T01:25:56;96813.53;;;2.79;60.91
15489;BME280;7846;48.830;9.116;2023-01-19T01:28:23;96819.66;;;2.78;60.84
15489;BME280;7846;48.830;9.116;2023-01-19T01:30:55;96816.81;;;2.81;61.74
15489;BME280;7846;48.830;9.116;2023-01-19T01:33:22;96818.28;;;2.64;62.12
15489;BME280;7846;48.830;9.116;2023-01-19T01:35:48;96827.16;;;2.61;61.85
15489;BME280;7846;48.830;9.116;2023-01-19T01:38:16;96825.75;;;2.48;61.75
15489;BME280;7846;48.830;9.116;2023-01-19T01:40:42;96822.66;;;2.63;62.17
15489;BME280;7846;48.830;9.116;2023-01-19T01:43:12;96819.47;;;3.10;60.80
15489;BME280;7846;48.830;9.116;2023-01-19T01:45:38;96822.56;;;2.84;61.01
15489;BME280;7846;48.830;9.116;2023-01-19T01:48:24;96825.44;;;2.91;61.20
15489;BME280;7846;48.830;9.116;2023-01-19T01:50:58;96823.53;;;2.83;61.34
15489;BME280;7846;48.830;9.116;2023-01-19T01:53:50;96826.69;;;2.87;61.00
15489;BME280;7846;48.830;9.116;2023-01-19T01:56:20;96832.25;;;2.73;60.98
15489;BME280;7846;48.830;9.116;2023-01-19T01:58:46;96830.03;;;2.58;61.22
15489;BME280;7846;48.830;9.116;2023-01-19T02:01:12;96826.34;;;2.61;61.09
15489;BME280;7846;48.830;9.116;2023-01-19T02:03:57;96822.81;;;2.72;61.05
15489;BME280;7846;48.830;9.116;2023-01-19T02:06:24;96833.44;;;2.59;61.05
15489;BME280;7846;48.830;9.116;2023-01-19T02:08:56;96825.69;;;2.69;61.46
15489;BME280;7846;48.830;9.116;2023-01-19T02:11:41;96827.41;;;2.49;61.79
15489;BME280;7846;48.830;9.116;2023-01-19T02:14:26;96820.59;;;2.57;61.47
15489;BME280;7846;48.830;9.116;2023-01-19T02:16:53;96819.63;;;2.49;61.45
15489;BME280;7846;48.830;9.116;2023-01-19T02:19:23;96810.25;;;2.67;61.23
15489;BME280;7846;48.830;9.116;2023-01-19T02:22:04;96813.09;;;2.74;61.57
15489;BME280;7846;48.830;9.116;2023-01-19T02:24:32;96812.81;;;2.57;61.55
15489;BME280;7846;48.830;9.116;2023-01-19T02:26:57;96821.25;;;2.59;61.72
15489;BME280;7846;48.830;9.116;2023-01-19T02:29:24;96815.63;;;2.95;60.94
15489;BME280;7846;48.830;9.116;2023-01-19T02:31:50;96814.75;;;2.75;60.37
15489;BME280;7846;48.830;9.116;2023-01-19T02:34:18;96814.22;;;2.81;60.39
15489;BME280;7846;48.830;9.116;2023-01-19T02:36:50;96809.72;;;2.83;60.63
15489;BME280;7846;48.830;9.116;2023-01-19T02:39:19;96815.69;;;2.74;60.89
15489;BME280;7846;48.830;9.116;2023-01-19T02:41:54;96818.97;;;2.66;61.87
15489;BME280;7846;48.830;9.116;2023-01-19T02:44:22;96824.59;;;2.71;61.43
15489;BME280;7846;48.830;9.116;2023-01-19T02:46:52;96819.56;;;2.89;61.14
15489;BME280;7846;48.830;9.116;2023-01-19T02:49:18;96835.25;;;2.68;61.59
15489;BME280;7846;48.830;9.116;2023-01-19T02:51:43;96831.59;;;2.80;60.69
15489;BME280;7846;48.830;9.116;2023-01-19T02:57:20;96823.84;;;3.09;60.31
15489;BME280;7846;48.830;9.116;2023-01-19T03:00:13;96820.09;;;2.83;60.79
15489;BME280;7846;48.830;9.116;2023-01-19T03:02:55;96817.81;;;2.89;60.88
15489;BME280;7846;48.830;9.116;2023-01-19T03:05:33;96828.88;;;2.82;60.92
15489;BME280;7846;48.830;9.116;2023-01-19T03:08:28;96815.19;;;2.80;61.02
15489;BME280;7846;48.830;9.116;2023-01-19T03:13:38;96829.31;;;3.06;60.60
15489;BME280;7846;48.830;9.116;2023-01-19T03:16:29;96823.28;;;3.06;60.15
15489;BME280;7846;48.830;9.116;2023-01-19T03:19:07;96824.06;;;2.87;60.39
15489;BME280;7846;48.830;9.116;2023-01-19T03:21:36;96825.72;;;2.78;60.99
15489;BME280;7846;48.830;9.116;2023-01-19T03:24:03;96827.91;;;2.83;60.37
15489;BME280;7846;48.830;9.116;2023-01-19T03:26:36;96824.56;;;2.61;60.89
15489;BME280;7846;48.830;9.116;2023-01-19T03:29:04;96816.91;;;2.60;61.26
15489;BME280;7846;48.830;9.116;2023-01-19T03:31:31;96822.78;;;2.62;60.99
15489;BME280;7846;48.830;9.116;2023-01-19T03:34:02;96826.59;;;2.58;61.64
15489;BME280;7846;48.830;9.116;2023-01-19T03:36:43;96830.63;;;2.72;61.13
15489;BME280;7846;48.830;9.116;2023-01-19T03:39:10;96824.97;;;2.66;60.98
15489;BME280;7846;48.830;9.116;2023-01-19T03:41:39;96825.19;;;2.94;60.41
15489;BME280;7846;48.830;9.116;2023-01-19T03:44:06;96829.84;;;2.90;59.64
15489;BME280;7846;48.830;9.116;2023-01-19T03:46:33;96831.72;;;2.79;59.85
15489;BME280;7846;48.830;9.116;2023-01-19T03:48:59;96840.44;;;2.68;60.27
15489;BME280;7846;48.830;9.116;2023-01-19T03:51:25;96832.78;;;2.66;60.33
15489;BME280;7846;48.830;9.116;2023-01-19T03:53:52;96837.84;;;2.68;60.53
15489;BME280;7846;48.830;9.116;2023-01-19T03:56:21;96833.66;;;2.96;60.24
15489;BME280;7846;48.830;9.116;2023-01-19T03:58:48;96833.94;;;3.03;59.33
15489;BME280;7846;48.830;9.116;2023-01-19T04:01:14;96835.59;;;3.04;58.78
15489;BME280;7846;48.830;9.116;2023-01-19T04:03:40;96841.03;;;2.91;58.72
15489;BME280;7846;48.830;9.116;2023-01-19T04:06:09;96838.00;;;2.76;59.14
15489;BME280;7846;48.830;9.116;2023-01-19T04:08:35;96839.88;;;2.64;59.18
15489;BME280;7846;48.830;9.116;2023-01-19T04:11:01;96840.97;;;2.52;60.18
15489;BME280;7846;48.830;9.116;2023-01-19T04:13:26;96842.84;;;2.50;59.92
15489;BME280;7846;48.830;9.116;2023-01-19T04:15:54;96850.06;;;2.47;60.34
15489;BME280;7846;48.830;9.116;2023-01-19T04:18:19;96847.63;;;2.45;60.62
15489;BME280;7846;48.830;9.116;2023-01-19T04:20:47;96848.19;;;2.58;60.02
15489;BME280;7846;48.830;9.116;2023-01-19T04:23:16;96855.84;;;2.50;59.85
15489;BME280;7846;48.830;9.116;2023-01-19T04:25:42;96859.56;;;2.27;60.57
15489;BME280;7846;48.830;9.116;2023-01-19T04:28:09;96852.94;;;2.43;60.00
15489;BME280;7846;48.830;9.116;2023-01-19T04:30:35;96856.91;;;2.48;60.02
15489;BME280;7846;48.830;9.116;2023-01-19T04:33:00;96862.56;;;2.01;61.47
15489;BME280;7846;48.830;9.116;2023-01-19T04:35:26;96858.69;;;2.16;61.93
15489;BME280;7846;48.830;9.116;2023-01-19T04:37:51;96860.41;;;2.37;61.10
15489;BME280;7846;48.830;9.116;2023-01-19T04:40:18;96860.69;;;2.34;61.73
15489;BME280;7846;48.830;9.116;2023-01-19T04:42:45;96857.81;;;2.67;60.78
15489;BME280;7846;48.830;9.116;2023-01-19T04:45:12;96857.03;;;2.96;59.26
15489;BME280;7846;48.830;9.116;2023-01-19T04:47:38;96857.97;;;2.85;58.80
15489;BME280;7846;48.830;9.116;2023-01-19T04:50:04;96864.03;;;2.86;59.15
15489;BME280;7846;48.830;9.116;2023-01-19T04:52:33;96866.44;;;2.68;59.89
15489;BME280;7846;48.830;9.116;2023-01-19T04:55:03;96861.09;;;2.70;59.63
15489;BME280;7846;48.830;9.116;2023-01-19T04:57:29;96865.63;;;2.77;59.29
15489;BME280;7846;48.830;9.116;2023-01-19T04:59:56;96865.41;;;2.59;59.71
15489;BME280;7846;48.830;9.116;2023-01-19T05:02:22;96866.94;;;2.62;59.54
15489;BME280;7846;48.830;9.116;2023-01-19T05:04:51;96861.78;;;2.41;60.48
15489;BME280;7846;48.830;9.116;2023-01-19T05:07:16;96875.28;;;2.04;61.21
15489;BME280;7846;48.830;9.116;2023-01-19T05:09:42;96873.47;;;2.26;61.11
15489;BME280;7846;48.830;9.116;2023-01-19T05:12:08;96868.41;;;2.45;60.55
15489;BME280;7846;48.830;9.116;2023-01-19T05:14:34;96869.88;;;2.38;60.77
15489;BME280;7846;48.830;9.116;2023-01-19T05:16:59;96872.41;;;2.59;60.67
15489;BME280;7846;48.830;9.116;2023-01-19T05:19:26;96871.63;;;2.68;60.81
15489;BME280;7846;48.830;9.116;2023-01-19T05:21:52;96868.56;;;2.63;61.12
15489;BME280;7846;48.830;9.116;2023-01-19T05:24:19;96875.91;;;2.79;61.01
15489;BME280;7846;48.830;9.116;2023-01-19T05:26:44;96875.59;;;2.72;60.51
15489;BME280;7846;48.830;9.116;2023-01-19T05:29:10;96876.28;;;2.74;60.98
15489;BME280;7846;48.830;9.116;2023-01-19T05:31:35;96868.28;;;2.97;60.42
15489;BME280;7846;48.830;9.116;2023-01-19T05:34:02;96876.78;;;3.08;59.85
15489;BME280;7846;48.830;9.116;2023-01-19T05:36:27;96876.50;;;3.11;59.71
15489;BME280;7846;48.830;9.116;2023-01-19T05:38:53;96876.63;;;3.00;59.94
15489;BME280;7846;48.830;9.116;2023-01-19T05:41:18;96880.03;;;2.91;59.89
15489;BME280;7846;48.830;9.116;2023-01-19T05:43:43;96881.50;;;2.84;60.18
15489;BME280;7846;48.830;9.116;2023-01-19T05:46:10;96887.09;;;2.79;60.25
15489;BME280;7846;48.830;9.116;2023-01-19T05:48:35;96883.00;;;2.77;59.53
15489;BME280;7846;48.830;9.116;2023-01-19T05:51:02;96892.88;;;2.83;60.06
15489;BME280;7846;48.830;9.116;2023-01-19T05:53:30;96893.72;;;2.93;60.11
15489;BME280;7846;48.830;9.116;2023-01-19T05:56:03;96897.47;;;2.70;60.66
15489;BME280;7846;48.830;9.116;2023-01-19T05:58:29;96895.41;;;2.63;60.28
15489;BME280;7846;48.830;9.116;2023-01-19T06:00:55;96902.91;;;2.36;61.03
15489;BME280;7846;48.830;9.116;2023-01-19T06:03:22;96902.88;;;2.57;60.87
15489;BME280;7846;48.830;9.116;2023-01-19T06:05:47;96896.75;;;2.37;60.74
15489;BME280;7846;48.830;9.116;2023-01-19T06:08:14;96906.56;;;2.54;60.38
15489;BME280;7846;48.830;9.116;2023-01-19T06:10:41;96910.75;;;2.46;60.97
15489;BME280;7846;48.830;9.116;2023-01-19T06:13:06;96913.78;;;2.51;60.65
15489;BME280;7846;48.830;9.116;2023-01-19T06:15:35;96910.22;;;2.21;60.91
15489;BME280;7846;48.830;9.116;2023-01-19T06:18:01;96919.72;;;2.11;62.04
15489;BME280;7846;48.830;9.116;2023-01-19T06:20:27;96925.94;;;2.20;61.71
15489;BME280;7846;48.830;9.116;2023-01-19T06:22:56;96923.56;;;2.37;61.42
15489;BME280;7846;48.830;9.116;2023-01-19T06:25:21;96919.00;;;2.30;61.69
15489;BME280;7846;48.830;9.116;2023-01-19T06:27:48;96920.28;;;2.35;60.91
15489;BME280;7846;48.830;9.116;2023-01-19T06:30:13;96915.81;;;2.47;60.61
15489;BME280;7846;48.830;9.116;2023-01-19T06:32:39;96928.44;;;2.31;61.15
15489;BME280;7846;48.830;9.116;2023-01-19T06:35:05;96929.84;;;2.35;61.30
15489;BME280;7846;48.830;9.116;2023-01-19T06:37:33;96932.94;;;2.29;61.53
15489;BME280;7846;48.830;9.116;2023-01-19T06:39:58;96934.16;;;2.25;61.60
15489;BME280;7846;48.830;9.116;2023-01-19T06:42:24;96940.09;;;2.36;61.09
15489;BME280;7846;48.830;9.116;2023-01-19T06:44:50;96944.47;;;2.66;60.33
15489;BME280;7846;48.830;9.116;2023-01-19T06:47:15;96940.66;;;2.71;60.00
15489;BME280;7846;48.830;9.116;2023-01-19T06:49:42;96938.38;;;2.77;59.62
15489;BME280;7846;48.830;9.116;2023-01-19T06:52:12;96943.41;;;3.09;59.80
15489;BME280;7846;48.830;9.116;2023-01-19T06:54:41;96936.50;;;2.89;59.24
15489;BME280;7846;48.830;9.116;2023-01-19T06:57:08;96937.28;;;2.80;60.19
15489;BME280;7846;48.830;9.116;2023-01-19T06:59:33;96931.84;;;2.92;59.64
15489;BME280;7846;48.830;9.116;2023-01-19T07:01:58;96933.78;;;3.00;59.28
15489;BME280;7846;48.830;9.116;2023-01-19T07:04:24;96946.31;;;2.85;59.35
15489;BME280;7846;48.830;9.116;2023-01-19T07:06:49;96939.47;;;2.75;59.22
15489;BME280;7846;48.830;9.116;2023-01-19T07:09:15;96943.88;;;2.53;59.82
15489;BME280;7846;48.830;9.116;2023-01-19T07:11:41;96945.59;;;2.74;59.38
15489;BME280;7846;48.830;9.116;2023-01-19T07:14:09;96944.22;;;2.70;59.89
15489;BME280;7846;48.830;9.116;2023-01-19T07:16:35;96944.75;;;2.63;59.65
15489;BME280;7846;48.830;9.116;2023-01-19T07:19:00;96941.84;;;2.57;59.76
15489;BME280;7846;48.830;9.116;2023-01-19T07:21:27;96942.31;;;2.72;59.85
15489;BME280;7846;48.830;9.116;2023-01-19T07:24:01;96943.47;;;2.88;59.21
15489;BME280;7846;48.830;9.116;2023-01-19T07:26:27;96950.84;;;2.53;59.58
15489;BME280;7846;48.830;9.116;2023-01-19T07:28:52;96949.75;;;2.55;59.83
15489;BME280;7846;48.830;9.116;2023-01-19T07:31:18;96946.59;;;2.52;59.58
15489;BME280;7846;48.830;9.116;2023-01-19T07:33:44;96937.38;;;2.69;59.05
15489;BME280;7846;48.830;9.116;2023-01-19T07:36:11;96935.03;;;2.96;59.03
15489;BME280;7846;48.830;9.116;2023-01-19T07:38:38;96941.91;;;3.07;58.85
15489;BME280;7846;48.830;9.116;2023-01-19T07:41:05;96945.56;;;2.95;58.90
15489;BME280;7846;48.830;9.116;2023-01-19T07:43:32;96945.31;;;3.07;58.39
15489;BME280;7846;48.830;9.116;2023-01-19T07:45:59;96942.81;;;2.96;58.95
15489;BME280;7846;48.830;9.116;2023-01-19T07:48:25;96951.38;;;2.77;58.98
15489;BME280;7846;48.830;9.116;2023-01-19T07:50:50;96952.47;;;2.75;59.13
15489;BME280;7846;48.830;9.116;2023-01-19T07:53:18;96961.75;;;2.47;59.58
15489;BME280;7846;48.830;9.116;2023-01-19T07:55:44;96958.78;;;2.82;59.07
15489;BME280;7846;48.830;9.116;2023-01-19T07:58:10;96963.03;;;2.83;59.01
15489;BME280;7846;48.830;9.116;2023-01-19T08:00:36;96960.34;;;3.04;58.98
15489;BME280;7846;48.830;9.116;2023-01-19T08:03:04;96965.19;;;3.08;58.63
15489;BME280;7846;48.830;9.116;2023-01-19T08:05:32;96965.41;;;3.46;58.10
15489;BME280;7846;48.830;9.116;2023-01-19T08:07:58;96966.50;;;3.62;57.68
15489;BME280;7846;48.830;9.116;2023-01-19T08:10:24;96966.81;;;3.79;57.33
15489;BME280;7846;48.830;9.116;2023-01-19T08:12:54;96969.41;;;3.69;57.90
15489;BME280;7846;48.830;9.116;2023-01-19T08:15:21;96969.84;;;3.94;57.37
15489;BME280;7846;48.830;9.116;2023-01-19T08:17:59;96978.28;;;3.47;57.92
15489;BME280;7846;48.830;9.116;2023-01-19T08:20:27;96975.03;;;4.03;57.18
15489;BME280;7846;48.830;9.116;2023-01-19T08:22:54;96979.84;;;3.98;56.68
15489;BME280;7846;48.830;9.116;2023-01-19T08:25:45;96981.19;;;3.93;57.36
15489;BME280;7846;48.830;9.116;2023-01-19T08:28:12;96984.91;;;4.00;56.79
15489;BME280;7846;48.830;9.116;2023-01-19T08:30:39;96988.06;;;3.94;57.10
15489;BME280;7846;48.830;9.116;2023-01-19T08:33:05;96985.03;;;3.98;57.03
15489;BME280;7846;48.830;9.116;2023-01-19T08:35:36;96989.56;;;4.25;56.70
15489;BME280;7846;48.830;9.116;2023-01-19T08:38:03;96986.00;;;4.17;56.62
15489;BME280;7846;48.830;9.116;2023-01-19T08:40:32;96985.59;;;4.02;57.49
15489;BME280;7846;48.830;9.116;2023-01-19T08:43:01;96998.88;;;4.38;56.70
15489;BME280;7846;48.830;9.116;2023-01-19T08:45:44;96995.72;;;4.24;56.78
15489;BME280;7846;48.830;9.116;2023-01-19T08:48:31;96996.81;;;4.22;57.23
15489;BME280;7846;48.830;9.116;2023-01-19T08:50:58;96991.34;;;4.15;56.86
15489;BME280;7846;48.830;9.116;2023-01-19T08:53:26;96997.78;;;4.01;56.52
15489;BME280;7846;48.830;9.116;2023-01-19T08:55:55;96993.53;;;4.49;56.33
15489;BME280;7846;48.830;9.116;2023-01-19T08:58:25;96991.88;;;4.95;55.09
15489;BME280;7846;48.830;9.116;2023-01-19T09:00:51;96994.34;;;4.30;56.62
15489;BME280;7846;48.830;9.116;2023-01-19T09:03:18;96997.31;;;4.64;56.00
15489;BME280;7846;48.830;9.116;2023-01-19T09:05:44;96995.59;;;4.92;55.13
15489;BME280;7846;48.830;9.116;2023-01-19T09:08:12;97005.75;;;4.95;54.94
15489;BME280;7846;48.830;9.116;2023-01-19T09:10:38;97012.22;;;5.19;55.02
15489;BME280;7846;48.830;9.116;2023-01-19T09:13:09;97011.69;;;5.70;55.05
15489;BME280;7846;48.830;9.116;2023-01-19T09:15:37;97004.97;;;5.50;54.67
15489;BME280;7846;48.830;9.116;2023-01-19T09:18:07;97016.78;;;5.17;54.81
15489;BME280;7846;48.830;9.116;2023-01-19T09:20:34;97011.47;;;5.36;55.61
15489;BME280;7846;48.830;9.116;2023-01-19T09:23:02;97008.31;;;5.05;55.74
15489;BME280;7846;48.830;9.116;2023-01-19T09:25:28;97011.84;;;4.67;55.19
15489;BME280;7846;48.830;9.116;2023-01-19T09:27:53;97009.75;;;4.80;55.34
15489;BME280;7846;48.830;9.116;2023-01-19T09:30:20;97011.28;;;5.20;54.98
15489;BME280;7846;48.830;9.116;2023-01-19T09:32:45;97012.91;;;5.48;54.99
15489;BME280;7846;48.830;9.116;2023-01-19T09:35:13;97012.81;;;5.40;54.54
15489;BME280;7846;48.830;9.116;2023-01-19T09:37:39;97013.28;;;5.36;54.95
15489;BME280;7846;48.830;9.116;2023-01-19T09:40:05;97012.19;;;5.28;55.80
15489;BME280;7846;48.830;9.116;2023-01-19T09:43:43;97007.94;;;5.55;55.77
15489;BME280;7846;48.830;9.116;2023-01-19T09:46:03;97014.94;;;5.54;55.34
15489;BME280;7846;48.830;9.116;2023-01-19T09:48:51;97016.03;;;5.62;55.84
15489;BME280;7846;48.830;9.116;2023-01-19T09:51:26;97012.63;;;5.79;55.66
15489;BME280;7846;48.830;9.116;2023-01-19T09:54:12;97003.94;;;6.06;54.26
15489;BME280;7846;48.830;9.116;2023-01-19T09:56:40;97006.59;;;5.96;54.12
15489;BME280;7846;48.830;9.116;2023-01-19T09:59:23;97008.19;;;6.07;54.84
15489;BME280;7846;48.830;9.116;2023-01-19T10:02:00;97000.03;;;5.92;54.55
15489;BME280;7846;48.830;9.116;2023-01-19T10:04:41;97006.97;;;6.37;53.66
15489;BME280;7846;48.830;9.116;2023-01-19T10:10:06;97000.31;;;6.87;54.10
15489;BME280;7846;48.830;9.116;2023-01-19T10:12:43;96995.22;;;6.85;52.60
15489;BME280;7846;48.830;9.116;2023-01-19T10:15:19;97001.41;;;7.10;51.98
15489;BME280;7846;48.830;9.116;2023-01-19T10:20:42;97002.34;;;7.27;52.43
15489;BME280;7846;48.830;9.116;2023-01-19T10:23:33;97001.19;;;7.38;51.28
15489;BME280;7846;48.830;9.116;2023-01-19T10:26:04;96989.75;;;7.31;50.93
15489;BME280;7846;48.830;9.116;2023-01-19T10:28:31;97002.38;;;7.43;50.74
15489;BME280;7846;48.830;9.116;2023-01-19T10:30:58;97006.28;;;7.31;50.50
15489;BME280;7846;48.830;9.116;2023-01-19T10:33:24;97003.56;;;6.89;51.27
15489;BME280;7846;48.830;9.116;2023-01-19T10:35:50;97007.44;;;6.76;51.58
15489;BME280;7846;48.830;9.116;2023-01-19T10:38:16;97002.34;;;6.49;52.00
15489;BME280;7846;48.830;9.116;2023-01-19T10:41:10;97002.78;;;6.26;51.93
15489;BME280;7846;48.830;9.116;2023-01-19T10:43:40;96998.38;;;5.91;53.63
15489;BME280;7846;48.830;9.116;2023-01-19T10:48:41;96996.56;;;6.01;53.34
15489;BME280;7846;48.830;9.116;2023-01-19T10:51:09;96993.59;;;6.40;54.10
15489;BME280;7846;48.830;9.116;2023-01-19T10:53:35;97002.50;;;6.29;53.73
15489;BME280;7846;48.830;9.116;2023-01-19T10:56:22;96997.31;;;5.94;54.04
15489;BME280;7846;48.830;9.116;2023-01-19T10:58:49;97000.13;;;6.00;54.24
15489;BME280;7846;48.830;9.116;2023-01-19T11:01:24;97004.25;;;6.65;53.63
15489;BME280;7846;48.830;9.116;2023-01-19T11:03:50;96997.03;;;5.87;54.82
15489;BME280;7846;48.830;9.116;2023-01-19T11:06:26;96997.66;;;6.35;54.40
15489;BME280;7846;48.830;9.116;2023-01-19T11:08:52;97003.56;;;6.63;52.97
15489;BME280;7846;48.830;9.116;2023-01-19T11:11:22;96996.00;;;6.77;52.85
15489;BME280;7846;48.830;9.116;2023-01-19T11:14:07;96998.31;;;7.15;52.67
15489;BME280;7846;48.830;9.116;2023-01-19T11:16:34;96990.19;;;6.66;53.05
15489;BME280;7846;48.830;9.116;2023-01-19T11:19:02;97000.41;;;6.77;52.49
15489;BME280;7846;48.830;9.116;2023-01-19T11:21:29;96987.88;;;6.89;52.45
15489;BME280;7846;48.830;9.116;2023-01-19T11:23:59;96993.59;;;6.84;52.00
15489;BME280;7846;48.830;9.116;2023-01-19T11:26:43;96993.94;;;6.89;52.89
15489;BME280;7846;48.830;9.116;2023-01-19T11:29:18;96984.41;;;7.14;52.41
15489;BME280;7846;48.830;9.116;2023-01-19T11:31:46;96980.25;;;6.69;52.68
15489;BME280;7846;48.830;9.116;2023-01-19T11:34:32;96977.63;;;6.95;52.18
15489;BME280;7846;48.830;9.116;2023-01-19T11:37:07;96977.34;;;7.41;51.80
15489;BME280;7846;48.830;9.116;2023-01-19T11:39:55;96982.91;;;8.13;50.14
15489;BME280;7846;48.830;9.116;2023-01-19T11:42:22;96976.00;;;7.79;49.87
15489;BME280;7846;48.830;9.116;2023-01-19T11:45:03;96982.75;;;8.06;50.14
15489;BME280;7846;48.830;9.116;2023-01-19T11:47:43;96980.75;;;7.33;51.36
15489;BME280;7846;48.830;9.116;2023-01-19T11:50:23;96986.25;;;7.64;51.61
15489;BME280;7846;48.830;9.116;2023-01-19T11:53:16;96979.09;;;7.32;52.01
15489;BME280;7846;48.830;9.116;2023-01-19T11:55:48;96976.78;;;7.21;51.97
15489;BME280;7846;48.830;9.116;2023-01-19T11:58:17;96975.06;;;6.77;53.01
15489;BME280;7846;48.830;9.116;2023-01-19T12:00:49;96980.59;;;6.48;53.11
15489;BME280;7846;48.830;9.116;2023-01-19T12:03:22;96968.28;;;6.67;53.42
15489;BME280;7846;48.830;9.116;2023-01-19T12:05:51;96975.72;;;6.71;53.20
15489;BME280;7846;48.830;9.116;2023-01-19T12:08:28;96981.09;;;6.52;53.82
15489;BME280;7846;48.830;9.116;2023-01-19T12:10:57;96975.94;;;6.34;54.08
15489;BME280;7846;48.830;9.116;2023-01-19T12:13:26;96972.81;;;6.13;54.37
15489;BME280;7846;48.830;9.116;2023-01-19T12:16:17;96974.69;;;6.64;54.20
15489;BME280;7846;48.830;9.116;2023-01-19T12:18:49;96973.63;;;6.31;54.69
15489;BME280;7846;48.830;9.116;2023-01-19T12:21:18;96984.06;;;6.31;54.70
15489;BME280;7846;48.830;9.116;2023-01-19T12:24:15;96986.59;;;6.67;53.72
15489;BME280;7846;48.830;9.116;2023-01-19T12:26:56;96982.25;;;7.01;53.01
15489;BME280;7846;48.830;9.116;2023-01-19T12:29:31;96977.47;;;6.97;53.87
15489;BME280;7846;48.830;9.116;2023-01-19T12:34:42;96980.91;;;7.32;53.36
15489;BME280;7846;48.830;9.116;2023-01-19T12:37:34;96983.31;;;7.25;53.16
15489;BME280;7846;48.830;9.116;2023-01-19T12:42:46;96987.91;;;7.73;52.35
15489;BME280;7846;48.830;9.116;2023-01-19T12:45:17;96986.72;;;7.60;52.65
15489;BME280;7846;48.830;9.116;2023-01-19T12:47:54;96991.91;;;7.01;55.65
15489;BME280;7846;48.830;9.116;2023-01-19T12:50:22;97001.03;;;6.09;58.44
15489;BME280;7846;48.830;9.116;2023-01-19T12:53:16;97004.16;;;6.13;59.08
15489;BME280;7846;48.830;9.116;2023-01-19T12:55:44;97006.53;;;5.33;60.69
15489;BME280;7846;48.830;9.116;2023-01-19T12:58:23;97004.47;;;5.82;61.65
15489;BME280;7846;48.830;9.116;2023-01-19T13:01:14;97007.28;;;6.34;60.41
15489;BME280;7846;48.830;9.116;2023-01-19T13:03:43;97001.97;;;6.26;61.03
15489;BME280;7846;48.830;9.116;2023-01-19T13:06:09;97010.22;;;6.13;61.46
15489;BME280;7846;48.830;9.116;2023-01-19T13:08:57;97012.69;;;6.59;60.51
15489;BME280;7846;48.830;9.116;2023-01-19T13:11:23;97005.78;;;6.49;60.62
15489;BME280;7846;48.830;9.116;2023-01-19T13:18:54;96999.66;;;5.87;62.58
15489;BME280;7846;48.830;9.116;2023-01-19T13:21:38;97003.28;;;6.66;61.52
15489;BME280;7846;48.830;9.116;2023-01-19T13:24:09;97002.47;;;6.47;61.87
15489;BME280;7846;48.830;9.116;2023-01-19T13:29:34;97010.19;;;6.49;60.87
15489;BME280;7846;48.830;9.116;2023-01-19T13:32:04;97003.22;;;6.84;60.14
15489;BME280;7846;48.830;9.116;2023-01-19T13:34:42;97014.81;;;6.81;59.38
15489;BME280;7846;48.830;9.116;2023-01-19T13:37:21;97008.81;;;7.23;58.55
15489;BME280;7846;48.830;9.116;2023-01-19T13:39:50;97003.44;;;6.90;58.31
15489;BME280;7846;48.830;9.116;2023-01-19T13:42:28;97013.56;;;6.93;58.15
15489;BME280;7846;48.830;9.116;2023-01-19T13:44:57;97013.81;;;6.56;58.58
15489;BME280;7846;48.830;9.116;2023-01-19T13:47:31;97014.28;;;6.77;58.50
15489;BME280;7846;48.830;9.116;2023-01-19T13:50:02;97019.72;;;7.10;57.14
15489;BME280;7846;48.830;9.116;2023-01-19T13:52:29;97017.81;;;6.86;57.46
15489;BME280;7846;48.830;9.116;2023-01-19T13:54:59;97018.00;;;7.61;56.65
15489;BME280;7846;48.830;9.116;2023-01-19T13:57:32;97021.31;;;7.71;55.91
15489;BME280;7846;48.830;9.116;2023-01-19T14:05:13;97022.63;;;7.75;55.54
15489;BME280;7846;48.830;9.116;2023-01-19T14:07:38;97023.09;;;7.71;55.65
15489;BME280;7846;48.830;9.116;2023-01-19T14:10:04;97024.34;;;8.01;55.11